Terminal Aerodrome Forecast
Issued by NWS Mt. Holly, NJ

Home | Current Version | Previous Version | Text Only | Print | Product List | Glossary On
Versions: 1 2 3 4 5 6 7 8 9 10 11 12 13 14 15 16 17 18
000
FTUS41 KPHI 010000 AAA
TAFILG
TAF AMD
KILG 010010Z 0100/0124 12008KT P6SM VCSH SCT028 BKN035
      TEMPO 0100/0102 BKN028
     FM010200 10007KT P6SM VCSH SCT025 BKN035
      TEMPO 0102/0106 -SHRA BKN025
     FM010700 04006KT P6SM BKN015
     FM010900 02006KT 6SM BR BKN008 OVC012
     FM011300 02008KT P6SM BKN015
     FM011700 01008KT P6SM SCT015 BKN040=

USA.gov is the U.S. government's official web portal to all federal, state and local government web resources and services.